createdAt,value
2019-05-05T00:00:30.626Z,3.78
2019-05-05T00:01:30.597Z,3.70
2019-05-05T00:02:30.570Z,3.78
2019-05-05T00:03:30.593Z,3.74
2019-05-05T00:04:30.584Z,3.76
2019-05-05T00:05:30.561Z,3.77
2019-05-05T00:06:30.528Z,3.73
2019-05-05T00:07:30.527Z,3.63
2019-05-05T00:08:30.528Z,3.69
2019-05-05T00:09:30.518Z,3.70
2019-05-05T00:10:30.514Z,3.70
2019-05-05T00:11:30.509Z,3.68
2019-05-05T00:12:30.480Z,3.69
2019-05-05T00:13:30.451Z,3.83
2019-05-05T00:14:30.457Z,3.80
2019-05-05T00:15:30.454Z,3.84
2019-05-05T00:16:30.416Z,3.80
2019-05-05T00:17:30.409Z,3.81
2019-05-05T00:18:30.407Z,3.77
2019-05-05T00:19:33.251Z,3.80
2019-05-05T00:20:31.398Z,3.77
2019-05-05T00:21:30.363Z,3.83
2019-05-05T00:22:30.354Z,3.81
2019-05-05T00:23:30.355Z,3.94
2019-05-05T00:24:30.365Z,3.94
2019-05-05T00:25:30.324Z,3.87
2019-05-05T00:26:30.336Z,3.98
2019-05-05T00:27:30.331Z,4.01
2019-05-05T00:28:30.292Z,4.05
2019-05-05T00:29:30.276Z,3.99
2019-05-05T00:30:30.279Z,4.06
2019-05-05T00:31:30.254Z,3.98
2019-05-05T00:32:30.240Z,4.02
2019-05-05T00:33:30.233Z,3.91
2019-05-05T00:34:30.232Z,3.95
2019-05-05T00:35:30.242Z,4.04
2019-05-05T00:36:30.226Z,3.96
2019-05-05T00:37:30.200Z,4.04
2019-05-05T00:38:30.197Z,4.13
2019-05-05T00:39:30.168Z,4.12
2019-05-05T00:40:30.170Z,4.17
2019-05-05T00:41:30.164Z,4.30
2019-05-05T00:42:30.155Z,4.28
2019-05-05T00:43:30.125Z,4.30
2019-05-05T00:44:30.115Z,4.35
2019-05-05T00:45:30.128Z,4.28
2019-05-05T00:46:30.128Z,4.26
2019-05-05T00:47:30.080Z,4.26
2019-05-05T00:48:30.090Z,4.28
2019-05-05T00:49:37.408Z,4.34
2019-05-05T00:50:31.067Z,4.40
2019-05-05T00:51:30.037Z,4.31
2019-05-05T00:52:30.060Z,4.37
2019-05-05T00:53:30.033Z,4.28
2019-05-05T00:54:30.092Z,4.31
2019-05-05T00:55:30.009Z,4.32
2019-05-05T00:56:29.980Z,4.34
2019-05-05T00:57:29.972Z,4.30
2019-05-05T00:58:29.995Z,4.31
2019-05-05T00:59:29.962Z,4.28
2019-05-05T01:00:29.936Z,4.32
2019-05-05T01:01:29.929Z,4.24
2019-05-05T01:02:29.917Z,4.26
2019-05-05T01:03:29.916Z,4.34
2019-05-05T01:04:29.939Z,4.24
2019-05-05T01:05:29.893Z,4.34
2019-05-05T01:06:29.872Z,4.37
2019-05-05T01:07:29.881Z,4.34
2019-05-05T01:08:29.905Z,4.40
2019-05-05T01:09:29.870Z,4.34
2019-05-05T01:10:29.829Z,4.49
2019-05-05T01:11:29.841Z,4.53
2019-05-05T01:12:29.832Z,4.45
2019-05-05T01:13:29.838Z,4.66
2019-05-05T01:14:29.780Z,4.59
2019-05-05T01:15:29.794Z,4.53
2019-05-05T01:16:29.760Z,4.48
2019-05-05T01:17:29.750Z,4.50
2019-05-05T01:18:29.767Z,4.49
2019-05-05T01:19:29.727Z,4.44
2019-05-05T01:20:29.782Z,4.52
2019-05-05T01:21:29.713Z,4.50
2019-05-05T01:22:29.695Z,4.34
2019-05-05T01:23:29.683Z,4.44
2019-05-05T01:24:29.682Z,4.31
2019-05-05T01:25:29.689Z,4.35
2019-05-05T01:26:29.675Z,4.31
2019-05-05T01:27:29.647Z,4.31
2019-05-05T01:28:29.634Z,4.26
2019-05-05T01:29:29.646Z,4.30
2019-05-05T01:30:29.671Z,4.38
2019-05-05T01:31:29.614Z,4.28
2019-05-05T01:32:29.595Z,4.34
2019-05-05T01:33:29.595Z,4.32
2019-05-05T01:34:29.570Z,4.26
2019-05-05T01:35:29.582Z,4.28
2019-05-05T01:36:29.544Z,4.31
2019-05-05T01:37:29.531Z,4.32
2019-05-05T01:38:29.529Z,4.30
2019-05-05T01:39:29.536Z,4.32
2019-05-05T01:40:29.506Z,4.24
2019-05-05T01:41:29.512Z,4.12
2019-05-05T01:42:29.477Z,4.26
2019-05-05T01:43:29.476Z,4.31
2019-05-05T01:44:29.474Z,4.32
2019-05-05T01:45:29.472Z,4.28
2019-05-05T01:46:29.432Z,4.23
2019-05-05T01:47:29.452Z,4.24
2019-05-05T01:48:29.413Z,4.38
2019-05-05T01:49:29.399Z,4.41
2019-05-05T01:50:29.389Z,4.40
2019-05-05T01:51:29.401Z,4.38
2019-05-05T01:52:29.391Z,4.30
2019-05-05T01:53:29.353Z,4.38
2019-05-05T01:54:29.357Z,4.26
2019-05-05T01:55:29.356Z,4.35
2019-05-05T01:56:29.335Z,4.44
2019-05-05T01:57:29.331Z,4.41
2019-05-05T01:58:29.318Z,4.42
2019-05-05T01:59:29.315Z,4.34
2019-05-05T02:00:29.294Z,4.52
2019-05-05T02:01:29.269Z,4.59
2019-05-05T02:02:29.329Z,4.58
2019-05-05T02:03:29.287Z,4.59
2019-05-05T02:04:29.238Z,4.62
2019-05-05T02:05:29.225Z,4.66
2019-05-05T02:06:29.230Z,4.59
2019-05-05T02:07:29.213Z,4.59
2019-05-05T02:08:29.231Z,4.56
2019-05-05T02:09:29.192Z,4.58
2019-05-05T02:10:29.170Z,4.59
2019-05-05T02:11:29.161Z,4.62
2019-05-05T02:12:29.152Z,4.60
2019-05-05T02:13:29.142Z,4.58
2019-05-05T02:14:29.170Z,4.56
2019-05-05T02:15:29.144Z,4.55
2019-05-05T02:16:29.106Z,4.53
2019-05-05T02:17:29.110Z,4.52
2019-05-05T02:18:29.081Z,4.59
2019-05-05T02:19:29.081Z,4.48
2019-05-05T02:20:31.289Z,4.52
2019-05-05T02:21:29.069Z,4.53
2019-05-05T02:22:29.048Z,4.60
2019-05-05T02:23:29.073Z,4.55
2019-05-05T02:24:29.017Z,4.49
2019-05-05T02:25:29.018Z,4.50
2019-05-05T02:26:29.009Z,4.45
2019-05-05T02:27:28.987Z,4.52
2019-05-05T02:28:29.019Z,4.38
2019-05-05T02:29:28.965Z,4.38
2019-05-05T02:30:28.966Z,4.42
2019-05-05T02:31:28.944Z,4.41
2019-05-05T02:32:28.975Z,4.45
2019-05-05T02:33:28.955Z,4.31
2019-05-05T02:34:28.924Z,4.32
2019-05-05T02:35:28.918Z,4.31
2019-05-05T02:36:28.919Z,4.26
2019-05-05T02:37:28.882Z,4.26
2019-05-05T02:38:28.876Z,4.34
2019-05-05T02:39:28.856Z,4.34
2019-05-05T02:40:28.885Z,4.32
2019-05-05T02:41:28.832Z,4.32
2019-05-05T02:42:28.834Z,4.19
2019-05-05T02:43:28.817Z,4.20
2019-05-05T02:44:28.814Z,4.12
2019-05-05T02:45:28.835Z,4.01
2019-05-05T02:46:28.799Z,4.08
2019-05-05T02:47:28.774Z,3.98
2019-05-05T02:48:28.766Z,4.05
2019-05-05T02:49:28.752Z,3.99
2019-05-05T02:50:47.283Z,3.98
2019-05-05T02:51:29.742Z,3.99
2019-05-05T02:52:28.715Z,4.04
2019-05-05T02:53:28.707Z,4.02
2019-05-05T02:54:28.716Z,4.01
2019-05-05T02:55:28.725Z,4.05
2019-05-05T02:56:28.713Z,3.98
2019-05-05T02:57:28.707Z,4.01
2019-05-05T02:58:28.647Z,4.08
2019-05-05T02:59:28.678Z,4.05
2019-05-05T03:00:28.634Z,4.06
2019-05-05T03:01:28.635Z,4.06
2019-05-05T03:02:28.605Z,4.04
2019-05-05T03:03:28.618Z,4.05
2019-05-05T03:04:28.605Z,3.98
2019-05-05T03:05:28.614Z,4.12
2019-05-05T03:06:28.584Z,4.01
2019-05-05T03:07:28.557Z,3.99
2019-05-05T03:08:28.553Z,4.12
2019-05-05T03:09:28.527Z,3.95
2019-05-05T03:10:28.520Z,4.05
2019-05-05T03:11:28.506Z,4.02
2019-05-05T03:12:28.515Z,3.94
2019-05-05T03:13:28.515Z,4.06
2019-05-05T03:14:28.474Z,4.01
2019-05-05T03:15:28.478Z,4.05
2019-05-05T03:16:28.450Z,3.99
2019-05-05T03:17:28.441Z,4.05
2019-05-05T03:18:28.493Z,3.98
2019-05-05T03:19:28.432Z,4.04
2019-05-05T03:20:28.408Z,4.04
2019-05-05T03:21:28.399Z,4.01
2019-05-05T03:22:28.420Z,4.01
2019-05-05T03:23:28.416Z,3.92
2019-05-05T03:24:28.382Z,4.01
2019-05-05T03:25:28.349Z,3.98
2019-05-05T03:26:28.375Z,3.94
2019-05-05T03:27:28.359Z,3.98
2019-05-05T03:28:28.366Z,4.01
2019-05-05T03:29:28.354Z,3.91
2019-05-05T03:30:28.299Z,3.96
2019-05-05T03:31:28.297Z,3.95
2019-05-05T03:32:28.281Z,3.96
2019-05-05T03:33:28.282Z,3.92
2019-05-05T03:34:28.258Z,3.88
2019-05-05T03:35:28.280Z,3.99
2019-05-05T03:36:28.236Z,3.81
2019-05-05T03:37:28.242Z,3.86
2019-05-05T03:38:28.209Z,3.88
2019-05-05T03:39:28.204Z,3.91
2019-05-05T03:40:28.196Z,3.95
2019-05-05T03:41:28.246Z,3.78
2019-05-05T03:42:28.164Z,3.87
2019-05-05T03:43:28.152Z,3.87
2019-05-05T03:44:28.147Z,3.87
2019-05-05T03:45:28.153Z,3.91
2019-05-05T03:46:28.122Z,3.86
2019-05-05T03:47:28.159Z,3.91
2019-05-05T03:48:28.099Z,3.91
2019-05-05T03:49:28.110Z,3.92
2019-05-05T03:50:28.076Z,3.84
2019-05-05T03:51:28.072Z,3.80
2019-05-05T03:52:28.057Z,3.81
2019-05-05T03:53:28.060Z,3.80
2019-05-05T03:54:28.047Z,3.81
2019-05-05T03:55:28.060Z,3.69
2019-05-05T03:56:28.032Z,3.74
2019-05-05T03:57:28.036Z,3.74
2019-05-05T03:58:27.994Z,3.73
2019-05-05T03:59:28.006Z,3.74
2019-05-05T04:00:28.026Z,3.69
2019-05-05T04:01:27.963Z,3.70
2019-05-05T04:02:27.957Z,3.73
2019-05-05T04:03:27.961Z,3.66
2019-05-05T04:04:27.927Z,3.70
2019-05-05T04:05:27.937Z,3.78
2019-05-05T04:06:27.905Z,3.80
2019-05-05T04:07:27.906Z,3.92
2019-05-05T04:08:27.883Z,3.87
2019-05-05T04:09:27.874Z,3.87
2019-05-05T04:10:27.864Z,3.99
2019-05-05T04:11:27.871Z,4.04
2019-05-05T04:12:27.865Z,4.02
2019-05-05T04:13:27.845Z,3.94
2019-05-05T04:14:27.839Z,4.13
2019-05-05T04:15:27.806Z,4.14
2019-05-05T04:16:27.805Z,4.10
2019-05-05T04:17:27.793Z,4.20
2019-05-05T04:18:27.819Z,4.23
2019-05-05T04:19:27.776Z,4.23
2019-05-05T04:20:27.770Z,4.28
2019-05-05T04:21:33.193Z,4.32
2019-05-05T04:22:28.745Z,4.31
2019-05-05T04:23:27.741Z,4.31
2019-05-05T04:24:27.707Z,4.35
2019-05-05T04:25:27.705Z,4.32
2019-05-05T04:26:27.740Z,4.32
2019-05-05T04:27:27.716Z,4.30
2019-05-05T04:28:27.690Z,4.32
2019-05-05T04:29:27.679Z,4.32
2019-05-05T04:30:27.667Z,4.30
2019-05-05T04:31:27.638Z,4.34
2019-05-05T04:32:27.624Z,4.35
2019-05-05T04:33:27.630Z,4.30
2019-05-05T04:34:27.634Z,4.40
2019-05-05T04:35:27.593Z,4.44
2019-05-05T04:36:27.589Z,4.37
2019-05-05T04:37:27.594Z,4.38
2019-05-05T04:38:27.563Z,4.38
2019-05-05T04:39:27.550Z,4.40
2019-05-05T04:40:27.530Z,4.40
2019-05-05T04:41:27.559Z,4.42
2019-05-05T04:42:27.523Z,4.49
2019-05-05T04:43:27.505Z,4.49
2019-05-05T04:44:27.495Z,4.44
2019-05-05T04:45:27.475Z,4.44
2019-05-05T04:46:27.465Z,4.44
2019-05-05T04:47:27.469Z,4.53
2019-05-05T04:48:27.444Z,4.48
2019-05-05T04:49:27.435Z,4.48
2019-05-05T04:50:27.460Z,4.56
2019-05-05T04:51:27.457Z,4.45
2019-05-05T04:52:27.415Z,4.44
2019-05-05T04:53:27.415Z,4.49
2019-05-05T04:54:27.386Z,4.52
2019-05-05T04:55:27.368Z,4.56
2019-05-05T04:56:29.833Z,4.59
2019-05-05T04:57:27.351Z,4.68
2019-05-05T04:58:27.334Z,4.62
2019-05-05T04:59:27.389Z,4.67
2019-05-05T05:00:27.316Z,4.62
2019-05-05T05:01:27.307Z,4.62
2019-05-05T05:02:27.300Z,4.73
2019-05-05T05:03:27.341Z,4.87
2019-05-05T05:04:27.282Z,4.73
2019-05-05T05:05:27.259Z,4.67
2019-05-05T05:06:27.248Z,4.70
2019-05-05T05:07:27.237Z,4.73
2019-05-05T05:08:27.282Z,4.63
2019-05-05T05:09:27.229Z,4.68
2019-05-05T05:10:27.202Z,4.74
2019-05-05T05:11:27.194Z,4.75
2019-05-05T05:12:27.191Z,4.74
2019-05-05T05:13:27.176Z,4.68
2019-05-05T05:14:27.177Z,4.89
2019-05-05T05:15:27.161Z,4.82
2019-05-05T05:16:27.139Z,4.87
2019-05-05T05:17:27.128Z,4.93
2019-05-05T05:18:27.116Z,4.96
2019-05-05T05:19:27.155Z,5.00
2019-05-05T05:20:27.123Z,5.02
2019-05-05T05:21:27.086Z,5.05
2019-05-05T05:22:27.093Z,5.12
2019-05-05T05:23:29.546Z,5.17
2019-05-05T05:24:27.066Z,5.11
2019-05-05T05:25:27.052Z,5.17
2019-05-05T05:26:27.074Z,5.14
2019-05-05T05:27:27.019Z,5.21
2019-05-05T05:28:27.021Z,5.11
2019-05-05T05:29:27.035Z,5.17
2019-05-05T05:30:27.027Z,5.11
2019-05-05T05:31:26.991Z,5.05
2019-05-05T05:32:26.998Z,5.11
2019-05-05T05:33:26.954Z,5.15
2019-05-05T05:34:26.946Z,5.14
2019-05-05T05:35:26.953Z,5.26
2019-05-05T05:36:26.930Z,5.10
2019-05-05T05:37:26.942Z,5.20
2019-05-05T05:38:26.919Z,5.18
2019-05-05T05:39:26.896Z,5.23
2019-05-05T05:40:26.880Z,5.32
2019-05-05T05:41:26.896Z,5.26
2019-05-05T05:42:26.858Z,5.33
2019-05-05T05:43:26.867Z,5.35
2019-05-05T05:44:28.155Z,5.38
2019-05-05T05:45:26.836Z,5.41
2019-05-05T05:46:26.837Z,5.41
2019-05-05T05:47:26.832Z,5.41
2019-05-05T05:48:26.793Z,5.47
2019-05-05T05:49:26.840Z,5.48
2019-05-05T05:50:26.798Z,5.43
2019-05-05T05:51:26.762Z,5.48
2019-05-05T05:52:26.774Z,5.48
2019-05-05T05:53:26.738Z,5.54
2019-05-05T05:54:26.756Z,5.56
2019-05-05T05:55:26.735Z,5.64
2019-05-05T05:56:26.723Z,5.57
2019-05-05T05:57:26.711Z,5.71
2019-05-05T05:58:26.687Z,5.71
2019-05-05T05:59:26.677Z,5.69
2019-05-05T06:00:26.664Z,5.68
2019-05-05T06:01:26.670Z,5.75
2019-05-05T06:02:26.637Z,5.73
2019-05-05T06:03:26.668Z,5.65
2019-05-05T06:04:26.629Z,5.62
2019-05-05T06:05:26.603Z,5.71
2019-05-05T06:06:26.608Z,5.75
2019-05-05T06:07:26.593Z,5.72
2019-05-05T06:08:26.568Z,5.71
2019-05-05T06:09:26.561Z,5.72
2019-05-05T06:10:27.459Z,5.79
2019-05-05T06:11:26.539Z,5.82
2019-05-05T06:12:26.547Z,5.83
2019-05-05T06:13:26.549Z,5.87
2019-05-05T06:14:26.517Z,5.87
2019-05-05T06:15:26.512Z,5.90
2019-05-05T06:16:26.486Z,5.97
2019-05-05T06:17:26.470Z,6.08
2019-05-05T06:18:26.479Z,6.07
2019-05-05T06:19:26.491Z,5.99
2019-05-05T06:20:26.440Z,6.08
2019-05-05T06:21:26.467Z,6.04
2019-05-05T06:22:29.233Z,6.17
2019-05-05T06:23:26.435Z,6.12
2019-05-05T06:24:26.428Z,6.09
2019-05-05T06:25:26.853Z,6.17
2019-05-05T06:26:26.386Z,6.17
2019-05-05T06:27:26.370Z,6.20
2019-05-05T06:28:26.354Z,6.12
2019-05-05T06:29:26.356Z,6.24
2019-05-05T06:30:26.358Z,6.28
2019-05-05T06:31:26.337Z,6.28
2019-05-05T06:32:26.310Z,6.33
2019-05-05T06:33:26.307Z,6.39
2019-05-05T06:34:26.285Z,6.48
2019-05-05T06:35:26.288Z,6.45
2019-05-05T06:36:26.273Z,6.56
2019-05-05T06:37:26.258Z,6.59
2019-05-05T06:38:26.255Z,6.70
2019-05-05T06:39:26.232Z,6.63
2019-05-05T06:40:26.234Z,6.75
2019-05-05T06:41:26.236Z,6.82
2019-05-05T06:42:26.200Z,6.84
2019-05-05T06:43:26.216Z,6.89
2019-05-05T06:44:26.199Z,6.97
2019-05-05T06:45:26.200Z,7.10
2019-05-05T06:46:26.169Z,7.06
2019-05-05T06:47:26.155Z,7.28
2019-05-05T06:48:26.149Z,7.25
2019-05-05T06:49:26.167Z,7.31
2019-05-05T06:50:26.121Z,7.33
2019-05-05T06:51:26.106Z,7.32
2019-05-05T06:52:26.173Z,7.32
2019-05-05T06:53:26.101Z,7.39
2019-05-05T06:54:26.117Z,7.33
2019-05-05T06:55:26.097Z,7.38
2019-05-05T06:56:26.048Z,7.33
2019-05-05T06:57:26.060Z,7.36
2019-05-05T06:58:26.070Z,7.39
2019-05-05T06:59:26.049Z,7.43
2019-05-05T07:00:26.022Z,7.51
2019-05-05T07:01:26.010Z,7.53
2019-05-05T07:02:25.994Z,7.53
2019-05-05T07:03:26.036Z,7.53
2019-05-05T07:04:26.008Z,7.60
2019-05-05T07:05:25.957Z,7.60
2019-05-05T07:06:25.950Z,7.69
2019-05-05T07:07:25.967Z,7.60
2019-05-05T07:08:25.965Z,7.56
2019-05-05T07:09:25.939Z,7.66
2019-05-05T07:10:25.975Z,7.66
2019-05-05T07:11:25.907Z,7.70
2019-05-05T07:12:25.880Z,7.67
2019-05-05T07:13:25.916Z,7.80
2019-05-05T07:14:25.870Z,7.82
2019-05-05T07:15:25.878Z,7.87
2019-05-05T07:16:25.928Z,7.87
2019-05-05T07:17:25.872Z,7.87
2019-05-05T07:18:25.816Z,7.83
2019-05-05T07:19:25.815Z,7.82
2019-05-05T07:20:25.818Z,7.83
2019-05-05T07:21:25.794Z,7.83
2019-05-05T07:22:25.790Z,7.85
2019-05-05T07:23:25.767Z,7.88
2019-05-05T07:24:25.734Z,7.95
2019-05-05T07:25:25.745Z,8.06
2019-05-05T07:26:25.774Z,8.06
2019-05-05T07:27:25.735Z,8.19
2019-05-05T07:28:25.709Z,8.18
2019-05-05T07:29:25.709Z,8.12
2019-05-05T07:30:25.708Z,8.08
2019-05-05T07:31:25.676Z,8.12
2019-05-05T07:32:25.682Z,8.20
2019-05-05T07:33:25.651Z,8.20
2019-05-05T07:34:25.720Z,8.23
2019-05-05T07:35:25.640Z,8.36
2019-05-05T07:36:25.797Z,8.30
2019-05-05T07:37:25.743Z,8.28
2019-05-05T07:38:25.753Z,8.36
2019-05-05T07:39:25.675Z,8.45
2019-05-05T07:40:25.609Z,8.45
2019-05-05T07:41:25.629Z,8.58
2019-05-05T07:42:25.622Z,8.64
2019-05-05T07:43:25.546Z,8.67
2019-05-05T07:44:29.609Z,8.70
2019-05-05T07:45:25.939Z,8.67
2019-05-05T07:46:25.504Z,8.82
2019-05-05T07:47:25.491Z,8.74
2019-05-05T07:48:25.490Z,8.81
2019-05-05T07:49:25.473Z,8.85
2019-05-05T07:50:31.905Z,8.73
2019-05-05T07:51:26.431Z,8.85
2019-05-05T07:52:25.458Z,8.74
2019-05-05T07:53:25.432Z,8.76
2019-05-05T07:54:25.425Z,8.82
2019-05-05T07:55:25.462Z,8.88
2019-05-05T07:56:25.425Z,8.97
2019-05-05T07:57:25.401Z,9.06
2019-05-05T07:58:25.469Z,9.18
2019-05-05T07:59:25.378Z,9.31
2019-05-05T08:00:25.429Z,9.43
2019-05-05T08:01:25.394Z,9.40
2019-05-05T08:02:25.373Z,9.41
2019-05-05T08:03:25.338Z,9.48
2019-05-05T08:04:25.331Z,9.50
2019-05-05T08:05:25.433Z,9.68
2019-05-05T08:06:25.356Z,9.73
2019-05-05T08:07:25.280Z,9.79
2019-05-05T08:08:25.590Z,9.77
2019-05-05T08:09:25.270Z,9.92
2019-05-05T08:10:25.252Z,10.01
2019-05-05T08:11:25.219Z,10.01
2019-05-05T08:12:25.262Z,10.05
2019-05-05T08:13:25.269Z,10.09
2019-05-05T08:14:25.226Z,10.15
2019-05-05T08:15:25.260Z,10.01
2019-05-05T08:16:25.246Z,10.07
2019-05-05T08:17:25.176Z,10.07
2019-05-05T08:18:25.133Z,10.19
2019-05-05T08:19:25.138Z,10.20
2019-05-05T08:20:25.149Z,10.38
2019-05-05T08:21:25.101Z,10.57
2019-05-05T08:22:25.090Z,10.67
2019-05-05T08:23:31.774Z,10.86
2019-05-05T08:24:26.084Z,10.87
2019-05-05T08:25:36.155Z,10.97
2019-05-05T08:26:26.047Z,11.17
2019-05-05T08:27:25.079Z,10.99
2019-05-05T08:28:25.038Z,11.04
2019-05-05T08:29:25.036Z,11.12
2019-05-05T08:30:25.018Z,11.17
2019-05-05T08:31:25.083Z,11.04
2019-05-05T08:32:24.985Z,11.00
2019-05-05T08:33:24.970Z,10.68
2019-05-05T08:34:24.958Z,10.46
2019-05-05T08:35:24.983Z,10.31
2019-05-05T08:36:25.011Z,10.04
2019-05-05T08:37:24.944Z,9.86
2019-05-05T08:38:24.923Z,9.43
2019-05-05T08:39:24.909Z,8.78
2019-05-05T08:40:24.908Z,8.61
2019-05-05T08:41:24.892Z,8.23
2019-05-05T08:42:24.910Z,7.91
2019-05-05T08:43:24.900Z,7.67
2019-05-05T08:44:24.855Z,7.58
2019-05-05T08:45:26.733Z,7.35
2019-05-05T08:46:24.854Z,7.29
2019-05-05T08:47:28.014Z,7.18
2019-05-05T08:48:24.824Z,7.23
2019-05-05T08:49:24.836Z,7.14
2019-05-05T08:50:26.998Z,7.05
2019-05-05T08:51:24.810Z,7.13
2019-05-05T08:52:24.769Z,7.20
2019-05-05T08:53:24.780Z,7.32
2019-05-05T08:54:24.741Z,7.31
2019-05-05T08:55:28.117Z,7.38
2019-05-05T08:56:24.809Z,7.51
2019-05-05T08:57:24.831Z,7.72
2019-05-05T08:58:24.756Z,7.95
2019-05-05T08:59:24.801Z,8.37
2019-05-05T09:00:24.679Z,8.55
2019-05-05T09:01:24.751Z,8.76
2019-05-05T09:02:24.752Z,8.91
2019-05-05T09:03:24.660Z,8.89
2019-05-05T09:04:24.797Z,9.10
2019-05-05T09:05:24.657Z,9.21
2019-05-05T09:06:24.640Z,9.25
2019-05-05T09:07:24.614Z,9.48
2019-05-05T09:08:24.609Z,9.62
2019-05-05T09:09:24.702Z,9.68
2019-05-05T09:10:24.796Z,9.68
2019-05-05T09:11:24.739Z,9.77
2019-05-05T09:12:24.571Z,9.74
2019-05-05T09:13:24.759Z,9.82
2019-05-05T09:14:24.599Z,9.80
2019-05-05T09:15:24.518Z,9.84
2019-05-05T09:16:24.524Z,9.84
2019-05-05T09:17:27.944Z,9.94
2019-05-05T09:18:24.727Z,10.12
2019-05-05T09:19:24.476Z,10.25
2019-05-05T09:20:24.457Z,10.25
2019-05-05T09:21:24.448Z,10.41
2019-05-05T09:22:24.668Z,10.64
2019-05-05T09:23:24.455Z,10.96
2019-05-05T09:24:25.021Z,11.11
2019-05-05T09:25:24.428Z,11.29
2019-05-05T09:26:24.388Z,11.52
2019-05-05T09:27:24.883Z,12.03
2019-05-05T09:28:24.433Z,12.42
2019-05-05T09:29:24.360Z,12.73
2019-05-05T09:30:24.663Z,13.04
2019-05-05T09:31:24.395Z,13.15
2019-05-05T09:32:24.548Z,13.30
2019-05-05T09:33:33.757Z,12.90
2019-05-05T09:34:29.967Z,12.78
2019-05-05T09:35:27.037Z,12.67
2019-05-05T09:36:24.750Z,12.57
2019-05-05T09:37:26.725Z,12.50
2019-05-05T09:38:25.402Z,12.20
2019-05-05T09:39:24.632Z,12.07
2019-05-05T09:40:24.872Z,11.84
2019-05-05T09:41:24.315Z,11.77
2019-05-05T09:42:27.229Z,11.52
2019-05-05T09:43:28.216Z,11.43
2019-05-05T09:44:24.322Z,11.11
2019-05-05T09:45:25.067Z,11.00
2019-05-05T09:46:25.663Z,10.76
2019-05-05T09:54:24.931Z,9.79
2019-05-05T09:55:07.088Z,9.89
2019-05-05T09:56:06.920Z,10.01
2019-05-05T09:57:07.019Z,10.30
2019-05-05T09:58:07.281Z,10.54
2019-05-05T09:59:07.379Z,10.82
2019-05-05T10:00:07.496Z,11.07
2019-05-05T10:01:07.196Z,11.15
2019-05-05T10:02:08.150Z,11.29
2019-05-05T10:03:07.463Z,11.41
2019-05-05T10:04:07.619Z,11.41
2019-05-05T10:05:06.937Z,11.40
2019-05-05T10:06:06.819Z,11.41
2019-05-05T10:07:06.741Z,11.59
2019-05-05T10:08:06.726Z,11.68
2019-05-05T10:09:06.707Z,11.69
2019-05-05T10:10:08.202Z,11.84
2019-05-05T10:11:06.699Z,12.18
2019-05-05T10:12:06.688Z,12.12
2019-05-05T10:13:06.691Z,11.68
2019-05-05T10:14:06.680Z,11.50
2019-05-05T10:15:07.539Z,11.35
2019-05-05T10:16:06.645Z,11.30
2019-05-05T10:17:06.652Z,11.30
2019-05-05T10:18:06.612Z,11.27
2019-05-05T10:19:06.629Z,11.36
2019-05-05T10:20:06.590Z,11.43
2019-05-05T10:21:06.614Z,11.52
2019-05-05T10:22:06.614Z,11.69
2019-05-05T10:23:06.555Z,11.69
2019-05-05T10:24:06.541Z,11.65
2019-05-05T10:25:06.547Z,11.62
2019-05-05T10:26:06.521Z,11.60
2019-05-05T10:27:06.561Z,11.66
2019-05-05T10:28:06.531Z,11.60
2019-05-05T10:29:06.487Z,11.62
2019-05-05T10:30:06.475Z,11.88
2019-05-05T10:31:06.465Z,12.32
2019-05-05T10:32:06.472Z,12.42
2019-05-05T10:33:06.441Z,12.61
2019-05-05T10:34:06.472Z,12.85
2019-05-05T10:35:06.480Z,12.97
2019-05-05T10:36:06.422Z,13.28
2019-05-05T10:37:06.413Z,13.41
2019-05-05T10:38:06.405Z,13.56
2019-05-05T10:39:06.375Z,13.65
2019-05-05T10:40:06.391Z,13.79
2019-05-05T10:41:06.428Z,13.77
2019-05-05T10:42:06.343Z,13.81
2019-05-05T10:43:06.333Z,13.92
2019-05-05T10:44:06.340Z,13.95
2019-05-05T10:45:06.316Z,13.95
2019-05-05T10:46:06.305Z,13.92
2019-05-05T10:47:06.321Z,13.97
2019-05-05T10:48:06.276Z,13.90
2019-05-05T10:49:06.284Z,13.96
2019-05-05T10:50:06.253Z,13.83
2019-05-05T10:51:06.253Z,13.93
2019-05-05T10:52:06.252Z,14.08
2019-05-05T10:53:06.254Z,14.12
2019-05-05T10:54:06.258Z,14.14
2019-05-05T10:55:06.224Z,14.22
2019-05-05T10:56:06.225Z,14.28
2019-05-05T10:57:06.178Z,14.25
2019-05-05T10:58:06.205Z,14.37
2019-05-05T10:59:06.217Z,14.26
2019-05-05T11:00:12.312Z,14.15
2019-05-05T11:01:07.133Z,13.81
2019-05-05T11:02:06.128Z,13.63
2019-05-05T11:03:06.193Z,13.72
2019-05-05T11:04:06.150Z,13.81
2019-05-05T11:05:06.132Z,13.95
2019-05-05T11:06:06.355Z,13.79
2019-05-05T11:07:06.119Z,13.70
2019-05-05T11:08:06.284Z,13.70
2019-05-05T11:09:06.228Z,13.74
2019-05-05T11:10:06.078Z,13.96
2019-05-05T11:11:06.068Z,13.93
2019-05-05T11:12:06.007Z,14.00
2019-05-05T11:13:06.004Z,13.96
2019-05-05T11:14:06.002Z,14.07
2019-05-05T11:15:05.983Z,14.29
2019-05-05T11:16:05.973Z,14.18
2019-05-05T11:17:06.000Z,14.30
2019-05-05T11:18:16.590Z,14.59
2019-05-05T11:19:05.990Z,14.63
2019-05-05T11:20:14.308Z,14.63
2019-05-05T11:21:05.901Z,14.37
2019-05-05T11:22:05.892Z,14.50
2019-05-05T11:23:05.896Z,14.68
2019-05-05T11:24:05.885Z,14.88
2019-05-05T11:25:05.858Z,14.97
2019-05-05T11:26:05.880Z,14.82
2019-05-05T11:27:05.838Z,14.45
2019-05-05T11:28:05.832Z,14.17
2019-05-05T11:29:05.816Z,13.86
2019-05-05T11:30:05.809Z,13.57
2019-05-05T11:31:05.794Z,13.13
2019-05-05T11:32:05.814Z,12.93
2019-05-05T11:33:05.774Z,12.62
2019-05-05T11:34:05.761Z,12.37
2019-05-05T11:35:05.749Z,12.17
2019-05-05T11:36:05.744Z,12.02
2019-05-05T11:37:05.731Z,11.84
2019-05-05T11:38:05.839Z,11.77
2019-05-05T11:39:05.906Z,11.72
2019-05-05T11:40:05.695Z,11.68
2019-05-05T11:41:05.681Z,11.63
2019-05-05T11:42:05.674Z,11.54
2019-05-05T11:43:05.678Z,11.62
2019-05-05T11:44:05.666Z,11.50
2019-05-05T11:45:05.640Z,11.55
2019-05-05T11:46:05.636Z,11.51
2019-05-05T11:47:05.614Z,11.59
2019-05-05T11:48:05.604Z,11.45
2019-05-05T11:49:05.610Z,11.59
2019-05-05T11:50:05.602Z,11.57
2019-05-05T11:51:05.577Z,11.62
2019-05-05T11:52:05.578Z,11.68
2019-05-05T11:53:05.551Z,11.66
2019-05-05T11:54:05.541Z,11.80
2019-05-05T11:55:11.677Z,11.83
2019-05-05T11:56:06.526Z,11.86
2019-05-05T11:57:05.503Z,11.84
2019-05-05T11:58:05.497Z,11.87
2019-05-05T11:59:05.491Z,11.80
2019-05-05T12:00:05.469Z,11.88
2019-05-05T12:01:05.471Z,11.84
2019-05-05T12:02:05.493Z,11.88
2019-05-05T12:03:05.436Z,11.88
2019-05-05T12:04:05.471Z,11.97
2019-05-05T12:05:05.416Z,12.03
2019-05-05T12:06:05.437Z,12.22
2019-05-05T12:07:05.463Z,12.37
2019-05-05T12:08:05.432Z,12.42
2019-05-05T12:09:05.404Z,12.50
2019-05-05T12:10:05.426Z,12.57
2019-05-05T12:11:05.381Z,12.57
2019-05-05T12:12:05.362Z,12.47
2019-05-05T12:13:05.370Z,12.45
2019-05-05T12:14:05.316Z,12.49
2019-05-05T12:15:05.300Z,12.46
2019-05-05T12:16:05.292Z,12.65
2019-05-05T12:17:05.312Z,12.79
2019-05-05T12:18:05.304Z,12.98
2019-05-05T12:19:05.258Z,13.09
2019-05-05T12:20:05.249Z,13.03
2019-05-05T12:21:05.434Z,13.04
2019-05-05T12:22:05.239Z,13.04
2019-05-05T12:23:05.231Z,13.13
2019-05-05T12:24:05.232Z,13.13
2019-05-05T12:25:05.261Z,13.12
2019-05-05T12:26:05.206Z,13.13
2019-05-05T12:27:05.168Z,13.01
2019-05-05T12:28:05.159Z,13.01
2019-05-05T12:29:05.147Z,13.08
2019-05-05T12:30:05.144Z,13.05
2019-05-05T12:31:05.179Z,12.93
2019-05-05T12:32:05.118Z,12.86
2019-05-05T12:33:05.106Z,12.94
2019-05-05T12:34:05.088Z,12.87
2019-05-05T12:35:05.080Z,13.00
2019-05-05T12:36:05.068Z,12.94
2019-05-05T12:37:05.377Z,12.98
2019-05-05T12:38:05.047Z,12.98
2019-05-05T12:39:05.049Z,13.11
2019-05-05T12:40:05.026Z,13.31
2019-05-05T12:41:05.037Z,13.41
2019-05-05T12:42:05.145Z,13.49
2019-05-05T12:43:04.994Z,13.57
2019-05-05T12:44:04.991Z,13.53
2019-05-05T12:45:04.975Z,13.54
2019-05-05T12:46:04.960Z,13.57
2019-05-05T12:47:04.948Z,13.57
2019-05-05T12:48:04.969Z,13.39
2019-05-05T12:49:04.970Z,13.33
2019-05-05T12:50:04.912Z,13.28
2019-05-05T12:51:04.942Z,13.18
2019-05-05T12:52:04.906Z,13.28
2019-05-05T12:53:04.889Z,13.16
2019-05-05T12:54:04.910Z,13.12
2019-05-05T12:55:05.170Z,13.04
2019-05-05T12:56:04.890Z,13.01
2019-05-05T12:57:04.839Z,12.94
2019-05-05T12:58:04.825Z,12.97
2019-05-05T12:59:04.855Z,13.00
2019-05-05T13:00:04.823Z,13.08
2019-05-05T13:01:04.816Z,13.25
2019-05-05T13:02:04.807Z,13.38
2019-05-05T13:03:04.767Z,13.37
2019-05-05T13:04:04.834Z,13.44
2019-05-05T13:05:04.810Z,13.25
2019-05-05T13:06:14.611Z,13.18
2019-05-05T13:07:06.650Z,13.25
2019-05-05T13:08:04.711Z,13.04
2019-05-05T13:09:04.719Z,12.97
2019-05-05T13:10:13.792Z,12.70
2019-05-05T13:11:04.682Z,12.43
2019-05-05T13:12:04.684Z,12.45
2019-05-05T13:13:04.704Z,12.47
2019-05-05T13:14:04.654Z,12.62
2019-05-05T13:15:04.638Z,12.62
2019-05-05T13:16:04.656Z,12.80